Time;durP1;ratioP1;P1;durP2;ratioP2;P2;SDS_P1;SDS_P2;PMS_P1;PMS_P2;Temp;Humidity;BMP_temperature;BMP_pressure;BME280_temperature;BME280_humidity;BME280_pressure;Samples;Min_cycle;Max_cycle;Signal;HPM_P1;HPM_P2
2021/10/01 00:02:21;;;;;;;;;45.00;36.25;;;;;15.83;48.45;99655.00;4856569;28;102168;-89
2021/10/01 00:04:48;;;;;;;;;46.50;37.25;;;;;15.81;47.99;99659.81;4863219;28;104218;-89
2021/10/01 00:07:16;;;;;;;;;44.25;37.25;;;;;15.78;48.32;99654.78;4862822;28;102579;-89
2021/10/01 00:09:43;;;;;;;;;47.00;38.00;;;;;15.79;47.84;99655.63;4863633;28;102304;-89
2021/10/01 00:12:10;;;;;;;;;49.50;40.00;;;;;15.76;48.22;99654.13;4871767;28;101881;-89
2021/10/01 00:14:40;;;;;;;;;44.50;37.50;;;;;15.75;47.97;99655.19;4868304;28;104394;-89
2021/10/01 00:17:09;;;;;;;;;51.00;38.75;;;;;15.74;48.10;99658.13;4871054;28;102040;-89
2021/10/01 00:19:36;;;;;;;;;48.50;37.00;;;;;15.74;47.92;99647.22;4868554;28;101915;-89
2021/10/01 00:22:04;;;;;;;;;46.75;37.25;;;;;15.72;47.28;99644.69;4878242;28;102652;-89
2021/10/01 00:24:31;;;;;;;;;42.25;36.50;;;;;15.68;47.64;99654.34;4872811;28;103740;-89
2021/10/01 00:26:58;;;;;;;;;45.00;36.00;;;;;15.67;47.28;99649.13;4856010;28;106368;-89
2021/10/01 00:29:25;;;;;;;;;40.75;35.50;;;;;15.66;47.25;99650.16;4876894;28;104174;-89
2021/10/01 00:31:52;;;;;;;;;49.25;36.50;;;;;15.63;47.28;99651.41;4866347;28;102634;-89
2021/10/01 00:34:19;;;;;;;;;44.50;36.50;;;;;15.62;47.55;99647.00;4866653;28;103406;-89
2021/10/01 00:36:46;;;;;;;;;39.00;35.25;;;;;15.61;46.96;99643.44;4871983;28;101869;-89
2021/10/01 00:39:13;;;;;;;;;48.25;38.75;;;;;15.59;47.73;99644.69;4862231;28;103226;-88
2021/10/01 00:41:40;;;;;;;;;45.75;36.00;;;;;15.58;46.67;99643.00;4868826;28;104113;-89
2021/10/01 00:44:07;;;;;;;;;38.25;34.00;;;;;15.57;46.95;99641.34;4870408;28;103344;-89
2021/10/01 00:46:34;;;;;;;;;44.50;35.75;;;;;15.55;47.22;99638.81;4850977;28;102365;-88
2021/10/01 00:49:01;;;;;;;;;48.00;39.25;;;;;15.52;46.94;99639.22;4867756;28;102213;-89
2021/10/01 00:51:29;;;;;;;;;43.75;36.50;;;;;15.52;46.87;99643.84;4855087;28;102538;-89
2021/10/01 00:53:56;;;;;;;;;44.75;37.25;;;;;15.48;46.68;99629.75;4855066;28;103437;-89
2021/10/01 00:56:24;;;;;;;;;31.75;25.50;;;;;15.48;46.87;99637.09;4866110;28;102053;-89
2021/10/01 00:58:51;;;;;;;;;41.25;35.25;;;;;15.46;46.48;99634.56;4862724;28;103479;-89
2021/10/01 01:01:17;;;;;;;;;42.50;36.25;;;;;15.46;46.89;99628.28;4836409;28;102824;-89
2021/10/01 01:03:51;;;;;;;;;42.25;36.25;;;;;15.44;46.97;99627.66;4821658;28;103568;-88
2021/10/01 01:06:20;;;;;;;;;48.00;36.00;;;;;15.42;46.61;99627.00;4815428;28;102224;-89
2021/10/01 01:09:18;;;;;;;;;47.75;36.75;;;;;15.40;46.18;99624.47;4819980;28;102438;-89
2021/10/01 01:11:51;;;;;;;;;41.75;35.75;;;;;15.38;46.33;99621.16;4854809;28;103314;-89
2021/10/01 01:14:22;;;;;;;;;40.75;33.00;;;;;15.37;46.25;99624.06;4863306;28;103524;-88
2021/10/01 01:16:50;;;;;;;;;47.75;36.00;;;;;15.35;45.96;99626.19;4828562;28;106969;-89
2021/10/01 01:19:54;;;;;;;;;44.25;35.25;;;;;15.33;46.15;99628.25;4833790;28;102027;-89
2021/10/01 01:22:36;;;;;;;;;41.00;34.75;;;;;15.33;46.27;99636.44;4847615;28;102221;-89
2021/10/01 01:25:34;;;;;;;;;42.50;36.50;;;;;15.31;45.98;99646.72;4844329;28;104134;-89
2021/10/01 01:28:30;;;;;;;;;42.00;34.25;;;;;15.28;45.80;99641.66;4864350;28;102087;-89
2021/10/01 01:31:01;;;;;;;;;37.75;31.00;;;;;15.26;45.39;99641.03;4838972;28;101862;-89
2021/10/01 01:33:29;;;;;;;;;34.25;31.00;;;;;15.23;45.86;99646.88;4842056;28;102130;-89
2021/10/01 01:35:57;;;;;;;;;39.00;32.75;;;;;15.23;46.04;99645.00;4813574;28;103539;-89
2021/10/01 01:38:31;;;;;;;;;35.75;31.25;;;;;15.19;45.55;99647.28;4832347;28;102003;-89
2021/10/01 01:40:59;;;;;;;;;36.50;32.25;;;;;15.18;45.38;99640.16;4830909;28;102155;-89
2021/10/01 01:43:27;;;;;;;;;39.25;32.50;;;;;15.16;45.59;99635.97;4835446;28;101852;-88
2021/10/01 01:45:54;;;;;;;;;36.00;31.50;;;;;15.14;45.43;99640.78;4850847;28;104862;-89
2021/10/01 01:48:21;;;;;;;;;33.25;30.00;;;;;15.12;45.41;99643.72;4864308;28;101913;-89
2021/10/01 01:50:48;;;;;;;;;36.00;31.50;;;;;15.11;45.29;99642.03;4857267;28;101996;-89
2021/10/01 01:53:15;;;;;;;;;38.75;33.75;;;;;15.11;45.59;99641.19;4836651;28;101829;-89
2021/10/01 01:55:42;;;;;;;;;42.50;34.75;;;;;15.09;45.30;99643.28;4838857;28;103879;-89
2021/10/01 01:58:09;;;;;;;;;40.75;33.75;;;;;15.07;45.29;99638.06;4861965;28;103019;-88
2021/10/01 02:00:35;;;;;;;;;41.50;35.50;;;;;15.05;44.91;99634.69;4853202;28;102294;-89
2021/10/01 02:03:03;;;;;;;;;38.75;32.25;;;;;15.02;45.12;99645.16;4833946;28;103247;-89
2021/10/01 02:05:30;;;;;;;;;40.25;31.75;;;;;15.02;44.98;99642.44;4820030;28;104647;-89
2021/10/01 02:07:58;;;;;;;;;40.50;33.00;;;;;14.99;45.16;99649.13;4864933;28;102289;-89
2021/10/01 02:10:25;;;;;;;;;28.25;26.00;;;;;14.98;44.86;99647.44;4834187;28;102169;-89
2021/10/01 02:12:57;;;;;;;;;40.25;33.25;;;;;14.98;44.67;99642.00;4827383;28;103936;-89
2021/10/01 02:15:25;;;;;;;;;35.50;31.00;;;;;14.98;45.11;99635.72;4859201;28;103673;-89
2021/10/01 02:17:53;;;;;;;;;38.75;33.50;;;;;14.95;45.01;99641.56;4829344;28;103495;-89
2021/10/01 02:20:20;;;;;;;;;39.50;33.00;;;;;14.92;45.19;99640.06;4826179;28;102079;-89
2021/10/01 02:22:47;;;;;;;;;39.75;34.25;;;;;14.92;44.59;99634.63;4842059;28;101917;-89
2021/10/01 02:28:07;;;;;;;;;42.75;34.00;;;;;14.90;44.76;99625.84;4846832;28;102160;-88
2021/10/01 02:30:35;;;;;;;;;36.50;34.00;;;;;14.90;44.85;99619.56;4848805;28;105131;-88
2021/10/01 02:33:07;;;;;;;;;38.75;34.00;;;;;14.89;45.22;99624.16;4845093;28;101972;-89
2021/10/01 02:35:34;;;;;;;;;38.50;33.25;;;;;14.87;45.15;99618.06;4843861;28;103542;-89
2021/10/01 02:38:01;;;;;;;;;42.25;34.25;;;;;14.83;44.58;99611.34;4842567;28;102119;-89
2021/10/01 02:40:28;;;;;;;;;38.75;33.75;;;;;14.84;44.90;99602.13;4856045;28;102223;-89
2021/10/01 02:42:55;;;;;;;;;32.50;31.50;;;;;14.82;44.85;99604.22;4868250;28;103303;-89
2021/10/01 02:45:22;;;;;;;;;37.25;33.50;;;;;14.82;44.93;99606.94;4862619;28;103421;-89
2021/10/01 02:47:49;;;;;;;;;42.00;34.75;;;;;14.84;45.06;99591.25;4867767;28;102306;-88
2021/10/01 02:50:18;;;;;;;;;41.00;32.50;;;;;14.82;44.79;99598.75;4845656;28;102205;-89
2021/10/01 02:52:55;;;;;;;;;38.50;32.00;;;;;14.81;44.59;99605.28;4837639;28;103714;-89
2021/10/01 02:55:44;;;;;;;;;37.75;31.25;;;;;14.79;44.77;99599.19;4866637;28;104068;-87
2021/10/01 02:58:27;;;;;;;;;34.25;30.75;;;;;14.80;44.65;99600.03;4862907;28;101799;-87
2021/10/01 03:00:54;;;;;;;;;36.25;30.00;;;;;14.78;45.07;99592.06;4841531;28;102208;-87
2021/10/01 03:03:23;;;;;;;;;31.50;29.75;;;;;14.76;44.78;99580.53;4845591;28;102304;-87
2021/10/01 03:05:51;;;;;;;;;32.50;29.75;;;;;14.75;44.51;99584.31;4835389;28;104279;-87
2021/10/01 03:08:18;;;;;;;;;36.50;33.75;;;;;14.74;45.16;99578.00;4856883;28;104615;-87
2021/10/01 03:10:47;;;;;;;;;40.00;34.00;;;;;14.73;45.35;99578.22;4872183;28;102154;-87
2021/10/01 03:13:19;;;;;;;;;35.00;29.75;;;;;14.72;45.22;99577.38;4869226;28;102156;-86
2021/10/01 03:15:50;;;;;;;;;32.50;29.25;;;;;14.71;44.66;99580.31;4828847;28;107965;-87
2021/10/01 03:18:17;;;;;;;;;33.00;30.50;;;;;14.69;45.11;99582.38;4851613;28;101931;-88
2021/10/01 03:20:45;;;;;;;;;37.50;30.50;;;;;14.68;44.95;99586.13;4871479;28;102398;-87
2021/10/01 03:23:16;;;;;;;;;26.00;23.00;;;;;14.65;44.49;99571.06;4865754;28;102037;-86
2021/10/01 03:25:43;;;;;;;;;29.75;26.50;;;;;14.69;44.44;99576.94;4856494;28;108162;-87
2021/10/01 03:28:10;;;;;;;;;30.00;26.50;;;;;14.66;44.96;99578.19;4850243;28;101819;-87
2021/10/01 03:30:39;;;;;;;;;30.00;25.75;;;;;14.65;44.70;99575.66;4865346;28;102157;-87
2021/10/01 03:33:06;;;;;;;;;32.25;27.50;;;;;14.63;44.42;99573.13;4848070;28;111537;-87
2021/10/01 03:35:33;;;;;;;;;30.50;27.50;;;;;14.62;44.64;99576.94;4861392;28;104226;-87
2021/10/01 03:38:00;;;;;;;;;30.75;26.25;;;;;14.61;44.61;99574.41;4850750;28;102868;-87
2021/10/01 03:40:31;;;;;;;;;31.00;26.25;;;;;14.60;45.00;99573.56;4854559;28;102444;-87
2021/10/01 03:42:58;;;;;;;;;28.25;24.00;;;;;14.60;44.70;99578.16;4866490;28;103852;-87
2021/10/01 03:45:25;;;;;;;;;24.50;23.50;;;;;14.57;44.68;99573.13;4868926;28;103751;-87
2021/10/01 03:47:52;;;;;;;;;26.75;25.50;;;;;14.56;44.63;99577.72;4864455;28;103899;-87
2021/10/01 03:50:19;;;;;;;;;20.25;19.00;;;;;14.54;44.42;99579.00;4876254;28;102178;-87
2021/10/01 03:52:46;;;;;;;;;28.50;25.75;;;;;14.53;44.30;99577.31;4875783;28;104578;-87
2021/10/01 03:55:20;;;;;;;;;23.25;20.00;;;;;14.53;44.97;99583.59;4874498;28;103182;-87
2021/10/01 03:57:50;;;;;;;;;33.25;30.00;;;;;14.50;44.63;99577.72;4872992;28;102525;-88
2021/10/01 04:00:18;;;;;;;;;25.00;21.50;;;;;14.48;44.71;99580.63;4862866;28;103153;-87
2021/10/01 04:02:45;;;;;;;;;25.25;25.00;;;;;14.47;44.59;99578.09;4861425;28;102298;-87
2021/10/01 04:05:13;;;;;;;;;23.75;21.00;;;;;14.47;44.29;99578.09;4878491;28;108880;-87
2021/10/01 04:07:40;;;;;;;;;24.75;22.25;;;;;14.46;44.31;99581.84;4868868;28;103089;-86
2021/10/01 04:10:07;;;;;;;;;23.75;23.25;;;;;14.45;44.77;99585.66;4854543;28;101965;-87
2021/10/01 04:12:34;;;;;;;;;25.50;24.25;;;;;14.45;44.19;99585.66;4872550;28;101965;-87
2021/10/01 04:15:07;;;;;;;;;27.25;26.00;;;;;14.43;44.51;99585.00;4860976;28;103434;-87
2021/10/01 04:17:34;;;;;;;;;32.75;27.50;;;;;14.42;44.02;99575.13;4871639;28;102979;-87
2021/10/01 04:20:01;;;;;;;;;28.50;24.25;;;;;14.38;44.52;99587.47;4873174;28;102988;-86
2021/10/01 04:22:28;;;;;;;;;26.50;26.25;;;;;14.39;44.38;99584.56;4875826;28;102070;-87
2021/10/01 04:24:55;;;;;;;;;27.25;24.25;;;;;14.38;44.19;99584.75;4871840;28;103462;-87
2021/10/01 04:27:22;;;;;;;;;30.25;27.75;;;;;14.36;44.35;99590.41;4875949;28;102264;-87
2021/10/01 04:29:49;;;;;;;;;32.00;28.50;;;;;14.36;44.33;99589.56;4871553;28;102956;-87
2021/10/01 04:32:16;;;;;;;;;34.50;31.50;;;;;14.32;44.48;99587.19;4874867;28;102849;-87
2021/10/01 04:35:04;;;;;;;;;33.50;31.75;;;;;14.30;43.91;99594.75;4879317;28;108185;-87
2021/10/01 04:37:31;;;;;;;;;32.25;28.50;;;;;14.29;44.40;99584.91;4864320;28;102209;-87
2021/10/01 04:39:58;;;;;;;;;34.50;30.25;;;;;14.28;44.47;99579.63;4872524;28;101926;-87
2021/10/01 04:42:25;;;;;;;;;24.25;21.50;;;;;14.27;43.99;99586.97;4878809;28;102075;-87
2021/10/01 04:44:52;;;;;;;;;32.25;30.25;;;;;14.27;44.47;99584.25;4876187;28;103889;-87
2021/10/01 04:47:19;;;;;;;;;33.00;29.00;;;;;14.27;43.98;99583.44;4863346;28;101884;-87
2021/10/01 04:49:47;;;;;;;;;31.00;29.25;;;;;14.26;44.21;99588.03;4875254;28;102225;-86
2021/10/01 04:52:14;;;;;;;;;36.75;33.25;;;;;14.25;44.56;99580.06;4876011;28;101970;-87
2021/10/01 04:54:41;;;;;;;;;36.25;32.25;;;;;14.24;44.36;99581.09;4860251;28;103357;-87
2021/10/01 04:57:08;;;;;;;;;34.00;31.75;;;;;14.20;44.48;99582.53;4863008;28;101959;-87
2021/10/01 04:59:35;;;;;;;;;34.00;31.50;;;;;14.21;43.64;99585.06;4865093;28;101839;-87
2021/10/01 05:02:02;;;;;;;;;38.50;32.25;;;;;14.19;44.41;99581.69;4862716;28;101899;-87
2021/10/01 05:04:29;;;;;;;;;39.25;32.50;;;;;14.18;44.06;99584.63;4859843;28;103695;-87
2021/10/01 05:06:56;;;;;;;;;38.50;33.25;;;;;14.17;43.84;99591.94;4862375;28;102892;-87
2021/10/01 05:09:23;;;;;;;;;39.00;33.00;;;;;14.15;44.06;99583.13;4865083;28;108913;-87
2021/10/01 05:11:50;;;;;;;;;35.00;32.25;;;;;14.12;43.97;99591.69;4857263;28;103422;-88
2021/10/01 05:14:17;;;;;;;;;40.25;32.00;;;;;14.13;43.71;99592.53;4870134;28;103891;-87
2021/10/01 05:16:45;;;;;;;;;33.50;30.75;;;;;14.13;44.19;99592.53;4845125;28;102075;-87
2021/10/01 05:19:13;;;;;;;;;37.50;32.75;;;;;14.13;44.20;99592.53;4842811;28;104593;-87
2021/10/01 05:21:40;;;;;;;;;38.00;33.50;;;;;14.09;44.18;99592.09;4858057;28;102172;-87
2021/10/01 05:24:07;;;;;;;;;34.75;31.75;;;;;14.08;44.16;99590.41;4844232;28;103423;-87
2021/10/01 05:26:34;;;;;;;;;33.00;31.50;;;;;14.07;43.97;99594.19;4845339;28;101926;-87
2021/10/01 05:29:01;;;;;;;;;35.25;31.75;;;;;14.05;44.35;99588.06;4835565;28;102114;-87
2021/10/01 05:31:29;;;;;;;;;36.50;32.00;;;;;14.07;43.78;99594.19;4839442;28;103049;-87
2021/10/01 05:33:56;;;;;;;;;42.25;34.25;;;;;14.05;44.10;99590.81;4846411;28;103409;-87
2021/10/01 05:36:23;;;;;;;;;39.25;30.75;;;;;14.04;43.76;99588.31;4846233;28;102204;-87
2021/10/01 05:38:50;;;;;;;;;36.00;30.00;;;;;14.03;43.98;99606.50;4846039;28;102149;-88
2021/10/01 05:41:19;;;;;;;;;37.25;31.50;;;;;14.03;44.28;99598.34;4841023;28;102201;-87
2021/10/01 05:43:46;;;;;;;;;33.75;30.50;;;;;14.02;44.22;99593.09;4845622;28;107768;-87
2021/10/01 05:46:14;;;;;;;;;34.50;32.00;;;;;14.01;43.53;99594.13;4852848;28;102117;-87
2021/10/01 05:48:44;;;;;;;;;28.50;26.25;;;;;14.02;43.51;99596.66;4844017;28;102147;-87
2021/10/01 05:51:13;;;;;;;;;26.00;26.00;;;;;14.00;43.58;99598.75;4844354;28;102128;-87
2021/10/01 05:56:11;;;;;;;;;39.75;33.00;;;;;13.98;43.52;99595.38;4846944;28;110663;-87
2021/10/01 05:58:39;;;;;;;;;35.00;32.00;;;;;13.96;43.91;99591.19;4851626;28;101765;-87
2021/10/01 06:01:06;;;;;;;;;40.50;34.00;;;;;13.93;43.45;99599.72;4852044;28;102985;-87
2021/10/01 06:03:34;;;;;;;;;40.75;32.50;;;;;13.95;43.59;99592.22;4840451;28;103434;-86
2021/10/01 06:06:01;;;;;;;;;37.50;32.75;;;;;13.92;43.22;99601.59;4853166;28;102586;-87
2021/10/01 06:08:28;;;;;;;;;36.00;32.00;;;;;13.92;43.56;99596.16;4844806;28;102161;-87
2021/10/01 06:10:55;;;;;;;;;39.00;32.00;;;;;13.92;44.32;99588.00;4854692;28;102363;-86
2021/10/01 06:13:22;;;;;;;;;37.75;34.00;;;;;13.91;43.25;99599.94;4850297;28;104302;-87
2021/10/01 06:15:49;;;;;;;;;39.00;32.00;;;;;13.90;44.03;99591.97;4852469;28;102211;-87
2021/10/01 06:18:16;;;;;;;;;39.25;33.75;;;;;13.90;43.59;99598.25;4854873;28;102062;-86
2021/10/01 06:20:43;;;;;;;;;43.00;34.75;;;;;13.91;44.28;99596.38;4851197;28;102633;-86
2021/10/01 06:23:10;;;;;;;;;36.00;30.25;;;;;13.91;44.08;99599.94;4844143;28;103638;-87
2021/10/01 06:25:37;;;;;;;;;36.00;33.25;;;;;13.88;44.03;99592.16;4842185;28;102460;-87
2021/10/01 06:28:04;;;;;;;;;34.25;32.00;;;;;13.87;43.93;99590.47;4850522;28;102489;-87
2021/10/01 06:30:31;;;;;;;;;39.50;33.75;;;;;13.88;44.11;99588.59;4849691;28;105087;-87
2021/10/01 06:32:58;;;;;;;;;33.00;30.00;;;;;13.88;44.24;99588.59;4845238;28;103739;-87
2021/10/01 06:35:25;;;;;;;;;33.75;31.00;;;;;13.89;43.66;99595.72;4848772;28;102597;-87
2021/10/01 06:37:53;;;;;;;;;31.75;30.00;;;;;13.87;43.37;99601.34;4842559;28;102361;-87
2021/10/01 06:40:20;;;;;;;;;34.75;30.50;;;;;13.89;44.95;99603.88;4855190;28;102374;-85
2021/10/01 06:42:50;;;;;;;;;37.50;33.75;;;;;13.91;43.96;99607.25;4849213;28;110323;-86
2021/10/01 06:45:22;;;;;;;;;31.75;27.00;;;;;13.89;44.20;99607.44;4850000;28;102236;-85
2021/10/01 07:21:12;;;;;;;;;32.75;28.75;;;;;13.85;44.54;99600.72;4849712;28;102248;-86
2021/10/01 07:34:50;;;;;;;;;29.00;24.50;;;;;13.89;45.48;99601.16;4842391;28;102388;-85
2021/10/01 08:21:24;;;;;;;;;16.25;14.75;;;;;14.15;53.84;99557.81;4851071;28;103391;-85
2021/10/01 08:24:10;;;;;;;;;18.75;16.75;;;;;14.16;54.33;99556.78;4855359;28;102020;-86
2021/10/01 08:26:37;;;;;;;;;16.00;15.00;;;;;14.18;53.83;99560.97;4862487;28;102063;-86
2021/10/01 08:29:04;;;;;;;;;19.50;16.50;;;;;14.19;53.93;99556.38;4853881;28;103998;-85
2021/10/01 08:31:31;;;;;;;;;19.75;17.50;;;;;14.22;53.86;99554.09;4851130;28;105443;-86
2021/10/01 08:33:59;;;;;;;;;14.00;13.00;;;;;14.23;54.67;99560.34;4857951;28;102187;-86
2021/10/01 08:36:26;;;;;;;;;16.75;15.75;;;;;14.24;53.88;99552.00;4851723;28;101676;-85
2021/10/01 08:38:53;;;;;;;;;12.75;10.50;;;;;14.28;54.21;99553.28;4864412;28;102547;-86
2021/10/01 08:41:21;;;;;;;;;16.75;15.00;;;;;14.28;54.67;99542.41;4861157;28;107934;-85
2021/10/01 08:43:48;;;;;;;;;14.75;14.75;;;;;14.29;54.56;99544.09;4846989;28;102175;-85
2021/10/01 08:46:19;;;;;;;;;16.75;15.75;;;;;14.32;54.64;99547.47;4848075;28;102279;-85
2021/10/01 08:48:47;;;;;;;;;17.00;14.75;;;;;14.32;55.51;99539.28;4857972;28;101833;-85
2021/10/01 08:51:14;;;;;;;;;12.50;12.25;;;;;14.35;55.41;99541.59;4833710;28;103384;-85
2021/10/01 08:53:42;;;;;;;;;11.50;8.50;;;;;14.40;53.82;99539.16;4835959;28;101704;-85
2021/10/01 08:56:10;;;;;;;;;12.25;11.00;;;;;14.45;54.01;99536.66;4843573;28;102204;-85
2021/10/01 08:58:37;;;;;;;;;10.25;9.75;;;;;14.46;54.16;99533.72;4840575;28;102358;-85
2021/10/01 09:01:04;;;;;;;;;14.75;13.25;;;;;14.48;54.77;99530.81;4852667;28;103733;-86
2021/10/01 09:03:31;;;;;;;;;12.25;10.75;;;;;14.50;54.86;99531.44;4851588;28;101966;-85
2021/10/01 09:05:58;;;;;;;;;16.00;10.50;;;;;14.51;54.93;99533.09;4845383;28;102279;-85
2021/10/01 09:08:25;;;;;;;;;10.75;10.25;;;;;14.53;55.06;99533.75;4857890;28;102263;-85
2021/10/01 09:10:59;;;;;;;;;12.25;11.75;;;;;14.56;55.51;99533.34;4853185;28;108159;-85
2021/10/01 09:13:26;;;;;;;;;12.75;10.25;;;;;14.58;55.47;99532.13;4843840;28;102151;-85
2021/10/01 09:16:07;;;;;;;;;12.00;11.00;;;;;14.59;55.82;99531.03;4874493;28;102017;-85
2021/10/01 09:18:36;;;;;;;;;10.25;10.00;;;;;14.61;55.37;99533.56;4859589;28;102163;-85
2021/10/01 09:21:13;;;;;;;;;7.25;7.00;;;;;14.63;55.49;99528.78;4866976;28;103387;-85
2021/10/01 09:23:43;;;;;;;;;11.00;9.75;;;;;14.65;55.34;99526.66;4863429;28;101871;-85
2021/10/01 09:26:18;;;;;;;;;12.75;9.50;;;;;14.65;55.87;99529.41;4857898;28;110227;-85
2021/10/01 09:28:52;;;;;;;;;11.25;9.75;;;;;14.68;55.83;99520.81;4874668;28;101896;-85
2021/10/01 09:31:49;;;;;;;;;8.00;8.00;;;;;14.68;56.33;99518.94;4867494;28;103559;-85
2021/10/01 09:34:22;;;;;;;;;8.50;8.00;;;;;14.70;56.30;99519.56;4849152;28;103121;-85
2021/10/01 09:37:10;;;;;;;;;11.00;9.50;;;;;14.73;55.59;99512.88;4858994;28;101750;-85
2021/10/01 09:39:43;;;;;;;;;10.00;9.00;;;;;14.74;55.66;99507.22;4866241;28;102168;-85
2021/10/01 09:42:22;;;;;;;;;10.50;10.00;;;;;14.78;55.46;99510.38;4870004;28;105689;-85
2021/10/01 09:45:01;;;;;;;;;11.00;10.75;;;;;14.80;55.59;99511.03;4869253;28;102197;-85
2021/10/01 09:47:45;;;;;;;;;9.75;9.75;;;;;14.82;55.14;99505.34;4852845;28;102309;-86
2021/10/01 09:50:14;;;;;;;;;13.50;13.50;;;;;14.85;55.46;99508.53;4867655;28;103153;-85
2021/10/01 09:52:46;;;;;;;;;16.00;15.25;;;;;14.87;55.88;99506.41;4865681;28;103149;-85
2021/10/01 09:55:18;;;;;;;;;21.00;17.50;;;;;14.88;56.14;99502.66;4874748;28;101762;-85
2021/10/01 09:58:11;;;;;;;;;19.75;18.25;;;;;14.89;56.13;99496.16;4870785;28;102089;-85
2021/10/01 10:00:53;;;;;;;;;20.75;18.50;;;;;14.91;56.15;99499.50;4854471;28;102242;-85
2021/10/01 10:03:23;;;;;;;;;21.75;20.25;;;;;14.92;56.31;99494.91;4865599;28;106800;-85
2021/10/01 10:05:54;;;;;;;;;25.00;22.00;;;;;14.95;56.65;99503.50;4876057;28;104101;-85
2021/10/01 10:08:27;;;;;;;;;26.00;23.50;;;;;14.98;55.90;99496.81;4872976;28;103766;-85
2021/10/01 10:10:56;;;;;;;;;25.75;23.25;;;;;14.97;55.98;99495.97;4859447;28;104476;-85
2021/10/01 10:13:55;;;;;;;;;29.00;24.50;;;;;14.99;55.89;99496.59;4872320;28;109829;-85
2021/10/01 10:16:28;;;;;;;;;27.75;23.75;;;;;15.00;56.32;99495.53;4816352;28;101814;-85
2021/10/01 10:19:07;;;;;;;;;26.75;22.75;;;;;15.02;56.52;99489.91;4844960;28;102552;-85
2021/10/01 10:21:34;;;;;;;;;26.75;25.00;;;;;15.03;56.67;99491.56;4833807;28;102239;-85
2021/10/01 10:24:02;;;;;;;;;26.75;24.75;;;;;15.05;57.03;99475.84;4862641;28;104557;-85
2021/10/01 10:26:29;;;;;;;;;25.50;24.25;;;;;15.06;56.87;99481.09;4855118;28;102003;-85
2021/10/01 10:28:59;;;;;;;;;30.50;24.25;;;;;15.07;57.82;99482.78;4853117;28;102495;-85
2021/10/01 10:31:31;;;;;;;;;26.00;24.00;;;;;15.09;57.45;99482.56;4848109;28;110175;-85
2021/10/01 10:33:59;;;;;;;;;24.00;23.50;;;;;15.10;57.31;99470.63;4835834;28;108130;-85
2021/10/01 10:36:31;;;;;;;;;23.25;21.50;;;;;15.10;57.66;99476.91;4858339;28;103566;-85
2021/10/01 10:39:19;;;;;;;;;24.50;22.25;;;;;15.12;57.61;99474.81;4860305;28;103243;-86
2021/10/01 10:42:04;;;;;;;;;27.00;25.75;;;;;15.14;58.04;99464.53;4860862;28;102066;-85
2021/10/01 10:44:49;;;;;;;;;26.25;22.75;;;;;15.15;58.00;99463.50;4834765;28;107954;-85
2021/10/01 10:47:41;;;;;;;;;24.00;20.75;;;;;15.18;57.88;99467.69;4863688;28;102050;-85
2021/10/01 10:50:26;;;;;;;;;25.50;24.50;;;;;15.19;58.14;99469.38;4852202;28;102028;-85
2021/10/01 10:53:05;;;;;;;;;25.25;23.50;;;;;15.21;57.96;99461.00;4858574;28;102355;-85
2021/10/01 10:55:49;;;;;;;;;26.25;21.25;;;;;15.23;58.69;99461.59;4851940;28;108145;-85
2021/10/01 10:58:23;;;;;;;;;23.75;22.00;;;;;15.24;58.33;99460.56;4859956;28;103078;-85
2021/10/01 11:00:54;;;;;;;;;31.00;21.50;;;;;15.26;57.61;99469.38;4861569;28;101574;-84
2021/10/01 11:03:23;;;;;;;;;22.75;21.50;;;;;15.27;57.38;99465.59;4856064;28;102269;-85
2021/10/01 11:06:08;;;;;;;;;20.00;19.75;;;;;15.30;57.36;99459.72;4861743;28;103492;-85
2021/10/01 11:08:35;;;;;;;;;23.25;22.50;;;;;15.31;57.50;99447.78;4863266;28;102364;-85
2021/10/01 11:11:02;;;;;;;;;16.50;16.50;;;;;15.31;57.94;99448.59;4855053;28;101874;-85
2021/10/01 11:13:33;;;;;;;;;22.75;21.25;;;;;15.34;58.39;99450.94;4858208;28;101840;-86
2021/10/01 11:16:09;;;;;;;;;23.00;20.25;;;;;15.36;57.69;99440.63;4838953;28;103486;-85
2021/10/01 11:18:57;;;;;;;;;21.00;20.25;;;;;15.39;57.76;99434.78;4871794;28;101799;-85
2021/10/01 11:21:33;;;;;;;;;17.75;17.50;;;;;15.40;58.40;99436.44;4876509;28;101721;-86
2021/10/01 11:24:13;;;;;;;;;20.50;19.00;;;;;15.44;58.71;99436.88;4862009;28;102277;-86
2021/10/01 11:26:47;;;;;;;;;20.50;20.50;;;;;15.44;58.94;99435.00;4871573;28;103460;-85
2021/10/01 11:29:21;;;;;;;;;18.25;17.00;;;;;15.46;58.58;99427.41;4878551;28;101953;-85
2021/10/01 11:31:49;;;;;;;;;18.50;18.50;;;;;15.48;58.60;99428.06;4870052;28;102432;-85
2021/10/01 11:34:16;;;;;;;;;21.50;20.50;;;;;15.51;58.98;99426.81;4867816;28;103557;-85
2021/10/01 11:36:43;;;;;;;;;20.00;17.50;;;;;15.53;58.76;99427.47;4872073;28;103226;-85
2021/10/01 11:39:11;;;;;;;;;20.25;16.00;;;;;15.54;59.62;99416.31;4867767;28;103369;-85
2021/10/01 11:41:46;;;;;;;;;22.25;18.50;;;;;15.56;58.92;99408.78;4854357;28;102184;-85
2021/10/01 11:44:14;;;;;;;;;17.50;16.25;;;;;15.58;59.10;99411.28;4874338;28;102106;-85
2021/10/01 11:46:46;;;;;;;;;17.75;16.75;;;;;15.61;58.74;99413.59;4867118;28;103621;-85
2021/10/01 11:49:15;;;;;;;;;19.25;18.25;;;;;15.62;59.17;99402.44;4860146;28;102268;-85
2021/10/01 11:51:42;;;;;;;;;22.75;18.25;;;;;15.66;59.52;99402.03;4868547;28;103155;-85
2021/10/01 11:54:14;;;;;;;;;16.25;15.50;;;;;15.67;59.18;99395.56;4862532;28;101786;-83
2021/10/01 11:56:41;;;;;;;;;18.75;14.50;;;;;15.72;59.53;99393.81;4839175;28;103368;-85
2021/10/01 11:59:09;;;;;;;;;15.75;14.25;;;;;15.75;59.47;99389.84;4840828;28;101710;-85
2021/10/01 12:01:35;;;;;;;;;18.50;16.75;;;;;15.77;59.68;99377.66;4850478;28;102140;-85
2021/10/01 12:04:03;;;;;;;;;20.50;18.25;;;;;15.80;59.35;99374.53;4854971;28;102259;-85
2021/10/01 12:06:35;;;;;;;;;18.50;16.75;;;;;15.83;60.56;99382.28;4875585;28;104332;-86
2021/10/01 12:09:04;;;;;;;;;18.75;16.50;;;;;15.85;60.43;99382.88;4876874;28;102179;-86
2021/10/01 12:11:34;;;;;;;;;19.25;16.50;;;;;15.87;61.01;99386.22;4853203;28;102103;-86
2021/10/01 12:14:14;;;;;;;;;21.00;18.00;;;;;15.89;60.94;99367.78;4872780;28;103211;-86
2021/10/01 12:16:58;;;;;;;;;17.00;16.00;;;;;15.92;60.67;99367.34;4855528;28;103575;-85
2021/10/01 12:19:29;;;;;;;;;17.25;16.75;;;;;15.94;60.50;99367.13;4854013;28;101736;-85
2021/10/01 12:22:12;;;;;;;;;16.50;15.25;;;;;15.96;60.26;99375.91;4851232;28;103458;-85
2021/10/01 12:24:43;;;;;;;;;16.50;15.50;;;;;15.99;60.42;99362.69;4838374;28;102267;-85
2021/10/01 12:27:11;;;;;;;;;14.75;14.00;;;;;16.02;60.63;99362.25;4856668;28;103549;-85
2021/10/01 12:29:55;;;;;;;;;20.00;15.00;;;;;16.05;60.40;99353.63;4847486;28;101867;-85
2021/10/01 12:32:23;;;;;;;;;18.00;16.00;;;;;16.08;61.30;99358.63;4829858;28;102387;-85
2021/10/01 12:34:57;;;;;;;;;15.75;15.00;;;;;16.11;62.19;99342.91;4841464;28;110571;-85
2021/10/01 12:37:26;;;;;;;;;15.00;14.25;;;;;16.15;62.36;99330.50;4814570;28;103382;-85
2021/10/01 12:39:54;;;;;;;;;16.00;16.00;;;;;16.19;62.17;99334.44;4834034;28;102407;-85
2021/10/01 12:42:29;;;;;;;;;16.25;14.00;;;;;16.21;62.23;99330.44;4851517;28;101858;-85
2021/10/01 12:45:05;;;;;;;;;15.25;14.75;;;;;16.22;62.74;99331.28;4851851;28;102351;-85
2021/10/01 12:47:33;;;;;;;;;17.00;15.25;;;;;16.23;62.66;99325.63;4837995;28;108159;-86
2021/10/01 12:50:07;;;;;;;;;16.75;15.25;;;;;16.27;62.32;99315.09;4852434;28;105879;-85
2021/10/01 12:52:35;;;;;;;;;13.25;12.00;;;;;16.31;62.74;99316.31;4844358;28;101807;-85
2021/10/01 12:55:10;;;;;;;;;14.00;13.00;;;;;16.33;62.72;99308.75;4847855;28;102450;-86
2021/10/01 12:57:41;;;;;;;;;14.50;12.25;;;;;16.38;63.17;99300.75;4846004;28;102535;-85
2021/10/01 13:00:14;;;;;;;;;13.75;12.75;;;;;16.39;63.45;99300.50;4815354;28;101814;-85